Time;durP1;ratioP1;P1;durP2;ratioP2;P2;SDS_P1;SDS_P2;PMS_P1;PMS_P2;Temp;Humidity;BMP_temperature;BMP_pressure;BME280_temperature;BME280_humidity;BME280_pressure;Samples;Min_cycle;Max_cycle;Signal;HPM_P1;HPM_P2
2023/11/05 00:01:14;;;;;;;1.10;0.40;;;;;;;6.13;62.00;97207.41;4983222;28;20543;-70
2023/11/05 00:03:42;;;;;;;0.82;0.40;;;;;;;6.12;62.31;97210.97;5000488;28;20072;-66
2023/11/05 00:06:07;;;;;;;0.95;0.50;;;;;;;6.21;62.18;97205.84;4998412;28;20026;-67
2023/11/05 00:08:33;;;;;;;3.67;0.40;;;;;;;6.17;62.37;97214.00;5004084;28;20048;-67
2023/11/05 00:10:58;;;;;;;1.83;0.60;;;;;;;6.26;62.16;97210.66;5001733;28;20051;-67
2023/11/05 00:13:24;;;;;;;2.42;0.50;;;;;;;6.06;63.11;97207.91;5003645;28;20041;-70
2023/11/05 00:15:54;;;;;;;1.52;0.57;;;;;;;6.09;62.71;97212.84;5001889;28;20290;-68
2023/11/05 00:18:20;;;;;;;1.50;0.60;;;;;;;6.32;62.47;97210.22;4991964;28;20443;-67
2023/11/05 00:20:45;;;;;;;3.53;0.40;;;;;;;6.28;62.42;97203.63;5004936;28;20438;-65
2023/11/05 00:23:11;;;;;;;2.00;0.60;;;;;;;6.41;62.15;97213.81;4999322;28;20215;-67
2023/11/05 00:25:39;;;;;;;2.65;0.60;;;;;;;6.16;62.88;97212.38;4990779;28;20705;-68
2023/11/05 00:28:04;;;;;;;4.43;0.85;;;;;;;6.54;61.84;97204.09;4992254;28;20091;-67
2023/11/05 00:30:32;;;;;;;2.75;0.75;;;;;;;6.22;63.21;97201.50;5001536;28;20375;-67
2023/11/05 00:32:58;;;;;;;2.13;1.30;;;;;;;6.30;62.70;97212.09;5007875;28;20034;-67
2023/11/05 00:35:23;;;;;;;1.83;1.02;;;;;;;6.34;62.67;97204.91;4991182;28;21293;-66
2023/11/05 00:37:48;;;;;;;5.22;1.38;;;;;;;6.49;62.48;97212.25;5003534;28;20460;-68
2023/11/05 00:40:14;;;;;;;1.95;1.10;;;;;;;6.48;62.26;97207.19;5000181;28;20668;-64
2023/11/05 00:42:39;;;;;;;3.80;0.82;;;;;;;6.53;62.36;97206.81;5003182;28;20301;-66
2023/11/05 00:45:08;;;;;;;3.28;1.23;;;;;;;6.39;62.78;97211.34;5001431;28;20029;-66
2023/11/05 00:47:36;;;;;;;1.60;0.97;;;;;;;6.35;63.29;97217.75;5015934;28;20041;-73
2023/11/05 00:50:01;;;;;;;2.42;1.13;;;;;;;6.69;61.81;97215.00;5005318;28;20760;-72
2023/11/05 00:52:28;;;;;;;3.38;1.10;;;;;;;6.76;61.67;97213.53;4989175;28;20124;-74
2023/11/05 00:54:54;;;;;;;2.42;0.98;;;;;;;6.73;61.55;97211.22;4992456;28;20022;-72
2023/11/05 00:57:19;;;;;;;4.60;1.40;;;;;;;6.70;61.63;97208.84;4985414;28;20523;-73
2023/11/05 00:59:44;;;;;;;1.80;1.13;;;;;;;6.77;61.54;97209.97;5000450;28;20034;-74
2023/11/05 01:02:10;;;;;;;1.63;1.02;;;;;;;6.54;62.17;97208.47;4999540;28;20496;-73
2023/11/05 01:04:36;;;;;;;3.90;2.08;;;;;;;6.63;61.94;97212.91;5006986;28;20044;-74
2023/11/05 01:07:01;;;;;;;5.78;1.15;;;;;;;6.62;61.96;97212.09;4991826;28;20412;-73
2023/11/05 01:09:27;;;;;;;5.75;1.17;;;;;;;6.66;61.89;97208.31;5000761;28;20083;-72
2023/11/05 01:11:52;;;;;;;5.65;1.35;;;;;;;6.63;62.46;97211.13;5001723;28;20108;-72
2023/11/05 01:14:18;;;;;;;4.32;1.63;;;;;;;6.80;61.31;97209.75;4986700;28;20022;-74
2023/11/05 01:16:43;;;;;;;2.40;1.08;;;;;;;6.79;61.43;97212.47;5004678;28;20076;-73
2023/11/05 01:19:10;;;;;;;3.95;1.52;;;;;;;6.53;62.35;97212.84;5004277;28;23723;-67
2023/11/05 01:21:35;;;;;;;3.92;1.45;;;;;;;6.60;62.20;97213.16;5009984;28;20229;-66
2023/11/05 01:24:01;;;;;;;7.35;1.00;;;;;;;6.70;61.54;97211.44;4997521;28;20455;-66
2023/11/05 01:26:29;;;;;;;1.63;0.95;;;;;;;6.73;61.42;97208.63;5001179;28;20748;-66
2023/11/05 01:28:54;;;;;;;3.67;1.25;;;;;;;6.78;61.40;97210.84;5003051;28;20528;-68
2023/11/05 01:31:23;;;;;;;2.33;1.00;;;;;;;6.66;62.09;97212.63;4981193;28;20049;-67
2023/11/05 01:33:48;;;;;;;4.05;1.13;;;;;;;6.61;62.06;97213.03;4999337;28;20114;-66
2023/11/05 01:36:14;;;;;;;2.20;1.15;;;;;;;6.52;62.19;97205.19;4996148;28;20034;-66
2023/11/05 01:38:39;;;;;;;1.70;0.80;;;;;;;6.55;61.79;97210.09;5006034;28;20046;-68
2023/11/05 01:41:07;;;;;;;2.70;0.95;;;;;;;6.68;61.30;97213.34;4999655;28;20029;-68
2023/11/05 01:43:32;;;;;;;3.78;0.90;;;;;;;6.49;61.59;97207.06;4998586;28;20037;-66
2023/11/05 01:45:58;;;;;;;1.75;0.85;;;;;;;6.48;61.41;97200.25;4997590;28;20547;-68
2023/11/05 01:48:27;;;;;;;4.63;0.82;;;;;;;6.45;61.67;97197.88;4997446;28;20034;-68
2023/11/05 01:50:52;;;;;;;2.20;0.75;;;;;;;6.43;61.53;97186.81;4998580;28;20700;-66
2023/11/05 01:53:18;;;;;;;3.92;0.75;;;;;;;6.52;61.34;97189.63;4999213;28;20643;-68
2023/11/05 01:55:44;;;;;;;4.13;0.95;;;;;;;6.43;61.40;97197.19;5002610;28;20038;-67
2023/11/05 01:58:11;;;;;;;3.78;0.90;;;;;;;6.52;61.55;97200.00;5004812;28;20045;-72
2023/11/05 02:00:37;;;;;;;1.70;1.10;;;;;;;6.32;62.13;97188.63;5009864;28;20078;-71
2023/11/05 02:03:03;;;;;;;1.17;0.55;;;;;;;6.38;61.65;97190.75;4985983;28;20500;-68
2023/11/05 02:05:29;;;;;;;3.80;1.13;;;;;;;6.37;61.22;97200.28;4987843;28;20473;-69
2023/11/05 02:07:54;;;;;;;6.90;0.73;;;;;;;6.19;62.14;97193.94;5005119;28;20067;-68
2023/11/05 02:10:20;;;;;;;1.20;0.50;;;;;;;6.24;62.01;97192.66;4999372;28;20033;-68
2023/11/05 02:13:02;;;;;;;3.08;0.40;;;;;;;6.18;61.76;97197.50;5002576;28;20038;-68
2023/11/05 02:15:29;;;;;;;5.15;1.40;;;;;;;6.22;62.10;97197.13;4989884;28;20097;-68
2023/11/05 02:17:57;;;;;;;6.07;0.70;;;;;;;6.20;61.67;97195.63;4998149;28;20040;-69
2023/11/05 02:20:23;;;;;;;3.20;0.60;;;;;;;6.28;61.51;97203.63;4997475;28;20629;-68
2023/11/05 02:22:52;;;;;;;3.38;0.63;;;;;;;6.18;62.31;97197.50;4999900;28;20095;-68
2023/11/05 02:25:19;;;;;;;13.85;0.88;;;;;;;6.16;62.20;97202.00;4996143;28;20038;-67
2023/11/05 02:27:51;;;;;;;2.92;0.88;;;;;;;6.15;62.33;97197.75;4998162;28;20060;-72
2023/11/05 02:30:18;;;;;;;5.95;0.80;;;;;;;6.17;62.48;97198.44;5005208;28;20040;-72
2023/11/05 02:32:44;;;;;;;4.80;0.88;;;;;;;6.17;62.46;97201.03;4988716;28;20124;-71
2023/11/05 02:35:12;;;;;;;2.42;0.57;;;;;;;6.14;62.71;97196.09;4998637;28;20029;-71
2023/11/05 02:37:41;;;;;;;3.45;0.60;;;;;;;6.25;62.56;97190.88;4996395;28;20057;-71
2023/11/05 02:40:08;;;;;;;3.50;0.73;;;;;;;6.26;62.22;97195.09;5006623;28;20037;-67
2023/11/05 02:42:34;;;;;;;3.83;0.77;;;;;;;6.28;62.23;97194.09;4982585;28;20103;-69
2023/11/05 02:44:59;;;;;;;4.45;0.55;;;;;;;6.43;61.84;97197.19;4999017;28;20068;-70
2023/11/05 02:47:25;;;;;;;4.50;1.05;;;;;;;6.44;61.53;97192.81;4993341;28;20500;-70
2023/11/05 02:49:53;;;;;;;9.35;0.88;;;;;;;6.37;61.63;97199.47;5002505;28;20037;-69
2023/11/05 02:52:18;;;;;;;2.40;0.85;;;;;;;6.31;62.19;97197.34;4990265;28;20037;-69
2023/11/05 02:54:44;;;;;;;2.10;0.47;;;;;;;6.49;61.38;97191.50;5001684;28;20037;-69
2023/11/05 02:57:09;;;;;;;4.53;1.08;;;;;;;6.40;61.74;97197.44;4987206;28;20127;-67
2023/11/05 02:59:35;;;;;;;4.57;0.70;;;;;;;6.35;61.70;97197.00;4994476;28;20025;-67
2023/11/05 03:02:01;;;;;;;4.63;0.98;;;;;;;6.39;61.67;97188.00;4997920;28;20057;-66
2023/11/05 03:04:26;;;;;;;3.75;0.57;;;;;;;6.42;61.20;97190.38;4982505;28;20057;-65
2023/11/05 03:06:52;;;;;;;1.70;0.70;;;;;;;6.38;61.39;97188.97;4999551;28;20112;-68
2023/11/05 03:09:20;;;;;;;4.32;1.05;;;;;;;6.32;61.19;97186.88;4997764;28;20094;-68
2023/11/05 03:11:46;;;;;;;4.57;0.70;;;;;;;6.23;61.66;97190.16;5007618;28;20029;-71
2023/11/05 03:14:12;;;;;;;1.63;0.40;;;;;;;6.41;61.52;97198.25;5005513;28;20393;-70
2023/11/05 03:16:41;;;;;;;2.20;1.00;;;;;;;6.29;61.78;97189.72;4989847;28;20040;-70
2023/11/05 03:19:07;;;;;;;3.05;0.65;;;;;;;6.41;61.78;97187.88;4996701;28;20041;-68
2023/11/05 03:21:32;;;;;;;2.53;0.60;;;;;;;6.44;61.46;97187.63;4988982;28;20049;-66
2023/11/05 03:23:59;;;;;;;1.30;0.40;;;;;;;6.43;61.12;97184.22;5002433;28;20046;-69
2023/11/05 03:26:25;;;;;;;5.38;1.13;;;;;;;6.36;61.62;97183.06;4996977;28;20043;-68
2023/11/05 03:28:50;;;;;;;3.55;0.55;;;;;;;6.36;61.14;97188.25;5002406;28;20438;-67
2023/11/05 03:31:16;;;;;;;3.97;0.50;;;;;;;6.32;61.57;97194.66;4987499;28;20041;-68
2023/11/05 03:33:42;;;;;;;3.53;0.82;;;;;;;6.17;62.43;97190.66;5003067;28;20077;-69
2023/11/05 03:36:09;;;;;;;3.38;0.25;;;;;;;6.31;61.27;97189.56;5001723;28;20042;-70
2023/11/05 03:38:35;;;;;;;5.18;0.57;;;;;;;6.42;61.49;97184.38;4998508;28;20076;-70
2023/11/05 03:41:01;;;;;;;3.28;0.82;;;;;;;6.43;61.24;97186.81;4999130;28;20052;-70
2023/11/05 03:43:27;;;;;;;3.85;0.68;;;;;;;6.46;61.33;97185.72;4999252;28;20671;-70
2023/11/05 03:45:52;;;;;;;2.85;0.40;;;;;;;6.44;61.29;97183.28;5000088;28;20175;-70
2023/11/05 03:48:18;;;;;;;2.33;0.60;;;;;;;6.42;61.13;97192.97;5000995;28;20068;-70
2023/11/05 03:50:44;;;;;;;7.40;0.80;;;;;;;6.43;60.83;97186.81;4998446;28;20634;-70
2023/11/05 03:53:09;;;;;;;4.72;0.80;;;;;;;6.35;60.78;97186.63;4997870;28;20037;-65
2023/11/05 03:55:35;;;;;;;1.10;0.52;;;;;;;6.21;60.29;97189.47;5001589;28;20037;-68
2023/11/05 03:58:00;;;;;;;3.38;0.82;;;;;;;6.15;60.35;97187.38;4999375;28;20795;-68
2023/11/05 04:00:26;;;;;;;3.95;0.68;;;;;;;6.02;60.49;97184.97;5004662;28;20034;-69
2023/11/05 04:02:51;;;;;;;4.50;0.75;;;;;;;5.95;60.69;97183.78;4997850;28;20056;-67
2023/11/05 04:05:17;;;;;;;1.83;0.40;;;;;;;5.90;61.07;97186.72;4997732;28;20033;-66
2023/11/05 04:07:43;;;;;;;5.20;0.55;;;;;;;5.83;61.02;97189.00;4995756;28;20042;-66
2023/11/05 04:10:10;;;;;;;3.80;0.80;;;;;;;5.90;61.05;97185.91;4999446;28;20033;-67
2023/11/05 04:12:36;;;;;;;4.20;0.47;;;;;;;5.90;60.79;97188.50;5000030;28;20100;-69
2023/11/05 04:15:05;;;;;;;9.57;0.63;;;;;;;5.74;61.17;97188.91;4999030;28;20129;-69
2023/11/05 04:17:30;;;;;;;6.82;0.68;;;;;;;5.77;61.01;97193.84;4993271;28;20046;-69
2023/11/05 04:19:56;;;;;;;4.35;0.65;;;;;;;5.72;61.13;97194.19;4999189;28;20511;-67
2023/11/05 04:22:24;;;;;;;5.68;0.70;;;;;;;5.76;61.44;97184.44;4993088;28;20119;-67
2023/11/05 04:24:51;;;;;;;6.22;1.25;;;;;;;5.79;61.52;97185.03;5006227;28;20069;-67
2023/11/05 04:27:18;;;;;;;8.13;1.08;;;;;;;5.88;61.33;97186.88;4997637;28;20045;-67
2023/11/05 04:29:44;;;;;;;4.57;0.52;;;;;;;5.95;61.61;97184.63;4996539;28;20044;-67
2023/11/05 04:32:10;;;;;;;5.10;0.90;;;;;;;6.04;61.54;97183.06;4998972;28;20041;-67
2023/11/05 04:34:36;;;;;;;3.92;0.68;;;;;;;6.01;61.48;97185.88;4996853;28;20088;-67
2023/11/05 04:37:02;;;;;;;9.38;1.35;;;;;;;6.02;61.44;97178.00;5001217;28;20038;-67
2023/11/05 04:39:27;;;;;;;3.80;0.55;;;;;;;6.08;61.27;97180.09;4998195;28;20060;-67
2023/11/05 04:41:53;;;;;;;6.82;0.75;;;;;;;6.14;61.49;97181.38;5000079;28;20123;-67
2023/11/05 04:44:19;;;;;;;3.83;0.75;;;;;;;6.20;61.07;97182.66;4997999;28;20732;-69
2023/11/05 04:46:45;;;;;;;3.90;0.75;;;;;;;6.25;61.28;97178.72;4995369;28;20029;-69
2023/11/05 04:49:10;;;;;;;4.10;1.02;;;;;;;6.28;61.23;97178.53;4997129;28;20466;-68
2023/11/05 04:51:36;;;;;;;2.08;0.80;;;;;;;6.25;61.16;97177.91;5001518;28;20033;-69
2023/11/05 04:54:02;;;;;;;5.70;0.73;;;;;;;6.21;61.61;97181.69;5003933;28;20048;-70
2023/11/05 04:56:28;;;;;;;5.00;0.60;;;;;;;6.08;62.02;97181.84;4997205;28;20122;-70
2023/11/05 04:58:53;;;;;;;3.95;0.75;;;;;;;6.29;61.44;97185.34;5001636;28;20065;-70
2023/11/05 05:01:19;;;;;;;8.43;0.57;;;;;;;6.30;61.16;97191.34;4999677;28;20034;-66
2023/11/05 05:03:44;;;;;;;4.07;0.28;;;;;;;6.33;61.36;97185.09;4999721;28;20433;-70
2023/11/05 05:06:10;;;;;;;7.68;1.38;;;;;;;6.22;61.67;97180.75;5003475;28;20116;-70
2023/11/05 05:08:35;;;;;;;4.80;0.80;;;;;;;6.38;61.34;97186.38;4999149;28;20484;-73
2023/11/05 05:11:01;;;;;;;3.88;0.40;;;;;;;6.50;61.25;97180.16;5000841;28;20036;-72
2023/11/05 05:13:26;;;;;;;4.03;0.50;;;;;;;6.53;61.02;97180.88;4990429;28;20447;-69
2023/11/05 05:15:51;;;;;;;9.68;1.25;;;;;;;6.44;61.04;97179.84;5004082;28;20034;-69
2023/11/05 05:18:17;;;;;;;6.30;0.80;;;;;;;6.49;60.89;97175.13;5001400;28;20567;-69
2023/11/05 05:20:42;;;;;;;5.38;0.20;;;;;;;6.33;61.46;97178.16;4997299;28;20192;-66
2023/11/05 05:23:08;;;;;;;3.90;0.50;;;;;;;6.42;61.01;97174.81;4999596;28;20535;-68
2023/11/05 05:25:34;;;;;;;5.38;0.30;;;;;;;6.53;60.50;97175.69;4998278;28;20025;-67
2023/11/05 05:27:59;;;;;;;4.40;0.95;;;;;;;6.44;61.21;97172.06;5000454;28;20520;-68
2023/11/05 05:30:25;;;;;;;8.65;0.50;;;;;;;6.45;60.70;97164.16;4997958;28;20036;-67
2023/11/05 05:32:50;;;;;;;4.82;0.20;;;;;;;6.42;60.27;97167.03;4999871;28;20034;-70
2023/11/05 05:35:16;;;;;;;4.32;0.50;;;;;;;6.34;60.66;97172.00;4986941;28;20653;-69
2023/11/05 05:37:41;;;;;;;1.25;0.30;;;;;;;6.37;60.47;97176.13;4995744;28;20146;-67
2023/11/05 05:40:07;;;;;;;9.90;0.77;;;;;;;6.16;60.84;97179.47;5004499;28;20061;-68
2023/11/05 05:42:33;;;;;;;5.57;0.50;;;;;;;6.19;60.97;97173.22;4995050;28;20104;-69
2023/11/05 05:44:58;;;;;;;5.60;0.38;;;;;;;6.17;60.66;97182.88;5015973;28;20034;-71
2023/11/05 05:47:24;;;;;;;2.65;0.25;;;;;;;6.09;60.72;97173.97;5000626;28;20045;-68
2023/11/05 05:49:49;;;;;;;4.35;0.40;;;;;;;6.10;60.66;97177.38;5008124;28;20103;-66
2023/11/05 05:52:15;;;;;;;4.80;0.20;;;;;;;6.07;60.50;97182.81;5000949;28;20128;-70
2023/11/05 05:54:40;;;;;;;3.75;0.30;;;;;;;6.03;60.60;97184.81;5004370;28;20026;-68
2023/11/05 05:57:06;;;;;;;0.68;0.25;;;;;;;5.90;60.73;97183.31;4986948;28;20529;-69
2023/11/05 05:59:32;;;;;;;3.47;0.30;;;;;;;5.85;60.65;97179.31;5004038;28;20128;-70
2023/11/05 06:01:59;;;;;;;2.10;0.35;;;;;;;5.86;60.92;97185.34;5001096;28;20022;-70
2023/11/05 06:04:25;;;;;;;3.15;0.35;;;;;;;5.77;61.17;97184.31;5002534;28;20030;-67
2023/11/05 06:06:51;;;;;;;2.72;0.28;;;;;;;5.81;61.50;97184.88;5001482;28;20032;-69
2023/11/05 06:09:19;;;;;;;6.32;0.28;;;;;;;5.83;61.33;97188.16;5001515;28;20029;-67
2023/11/05 06:11:46;;;;;;;1.58;0.25;;;;;;;5.84;60.83;97187.25;4999799;28;23049;-68
2023/11/05 06:14:11;;;;;;;4.45;0.93;;;;;;;5.84;61.16;97193.25;5000445;28;20045;-67
2023/11/05 06:16:37;;;;;;;5.53;0.70;;;;;;;5.75;61.19;97185.34;5003399;28;20037;-69
2023/11/05 06:19:02;;;;;;;4.22;0.50;;;;;;;5.79;61.28;97186.75;5001299;28;20045;-67
2023/11/05 06:21:28;;;;;;;5.35;0.52;;;;;;;5.86;60.87;97193.13;4995759;28;20037;-70
2023/11/05 06:23:53;;;;;;;6.82;0.47;;;;;;;5.83;60.74;97188.16;5001913;28;20060;-69
2023/11/05 06:26:19;;;;;;;1.88;0.40;;;;;;;5.84;61.02;97189.84;4996942;28;22477;-69
2023/11/05 06:28:45;;;;;;;1.42;0.20;;;;;;;5.78;61.41;97185.13;5003616;28;20413;-68
2023/11/05 06:31:10;;;;;;;5.20;0.50;;;;;;;5.95;61.34;97188.97;5000223;28;20205;-67
2023/11/05 06:33:36;;;;;;;5.82;0.80;;;;;;;5.99;60.89;97188.59;4999719;28;20172;-69
2023/11/05 06:36:01;;;;;;;7.00;0.77;;;;;;;5.99;61.21;97193.78;5006862;28;20509;-67
2023/11/05 06:38:28;;;;;;;3.10;0.20;;;;;;;6.05;61.05;97192.47;4998500;28;20501;-68
2023/11/05 06:40:53;;;;;;;3.97;0.40;;;;;;;6.10;61.27;97187.75;4993770;28;20041;-67
2023/11/05 06:43:19;;;;;;;3.17;0.30;;;;;;;6.15;60.60;97197.75;4997767;28;20042;-70
2023/11/05 06:45:44;;;;;;;8.27;0.30;;;;;;;6.17;60.79;97201.88;4998451;28;20535;-69
2023/11/05 06:48:10;;;;;;;4.47;0.77;;;;;;;6.16;60.71;97199.41;4997883;28;20108;-68
2023/11/05 06:50:36;;;;;;;10.52;0.55;;;;;;;6.19;60.59;97204.31;4997278;28;20714;-67
2023/11/05 06:53:02;;;;;;;1.60;0.40;;;;;;;6.08;60.79;97208.63;5003654;28;20044;-69
2023/11/05 06:55:28;;;;;;;2.42;0.50;;;;;;;6.12;60.84;97210.97;5004822;28;20030;-70
2023/11/05 06:57:54;;;;;;;4.00;0.68;;;;;;;6.04;60.91;97207.22;5001800;28;20049;-68
2023/11/05 07:00:22;;;;;;;2.90;0.20;;;;;;;6.13;60.72;97215.19;5002585;28;20037;-68
2023/11/05 07:02:47;;;;;;;3.55;0.43;;;;;;;6.20;60.80;97216.38;4992701;28;20052;-71
2023/11/05 07:05:13;;;;;;;1.38;0.90;;;;;;;6.25;60.88;97222.00;4998007;28;20042;-71
2023/11/05 07:07:38;;;;;;;2.25;0.30;;;;;;;6.28;60.77;97225.22;4995094;28;20061;-70
2023/11/05 07:10:04;;;;;;;3.70;0.30;;;;;;;6.33;60.73;97224.84;4998755;28;20182;-69
2023/11/05 07:12:33;;;;;;;3.00;0.40;;;;;;;6.36;60.77;97227.16;4994580;28;20546;-71
2023/11/05 07:15:02;;;;;;;1.52;0.25;;;;;;;6.36;61.13;97221.16;5000830;28;20041;-70
2023/11/05 07:17:27;;;;;;;1.33;0.20;;;;;;;6.36;61.10;97224.56;4997223;28;20249;-71
2023/11/05 07:19:53;;;;;;;3.60;0.50;;;;;;;6.49;60.95;97222.63;4995742;28;20603;-70
2023/11/05 07:22:19;;;;;;;3.63;0.40;;;;;;;6.56;60.93;97227.34;4997124;28;20052;-68
2023/11/05 07:24:45;;;;;;;7.10;0.45;;;;;;;6.64;60.68;97227.50;4995216;28;20069;-69
2023/11/05 07:27:11;;;;;;;2.53;0.20;;;;;;;6.72;60.66;97222.53;5000203;28;20132;-67
2023/11/05 07:29:36;;;;;;;2.05;0.30;;;;;;;6.82;60.67;97223.44;4992671;28;20049;-69
2023/11/05 07:32:02;;;;;;;3.58;0.30;;;;;;;6.94;60.86;97226.78;4998087;28;20053;-72
2023/11/05 07:34:29;;;;;;;2.80;0.50;;;;;;;7.07;60.53;97229.19;4996501;28;20613;-67
2023/11/05 07:36:56;;;;;;;1.25;0.40;;;;;;;7.06;60.09;97230.09;4995949;28;20064;-67
2023/11/05 07:39:22;;;;;;;5.30;0.68;;;;;;;7.09;60.11;97229.88;4996912;28;20475;-70
2023/11/05 07:41:48;;;;;;;3.33;0.50;;;;;;;7.15;60.02;97229.34;4992644;28;20030;-66
2023/11/05 07:44:13;;;;;;;2.50;0.22;;;;;;;7.16;60.19;97231.00;5005730;28;20041;-70
2023/11/05 07:46:38;;;;;;;2.20;0.50;;;;;;;7.27;60.02;97232.69;4990865;28;20041;-69
2023/11/05 07:49:06;;;;;;;2.67;0.30;;;;;;;7.27;59.80;97238.72;4995901;28;20055;-70
2023/11/05 07:51:32;;;;;;;4.88;0.65;;;;;;;7.38;59.85;97240.41;4993376;28;20064;-68
2023/11/05 07:53:59;;;;;;;4.43;0.30;;;;;;;7.47;59.42;97244.81;4994685;28;20140;-69
2023/11/05 07:56:27;;;;;;;2.95;0.28;;;;;;;7.48;59.32;97243.03;4996894;28;20104;-71
2023/11/05 07:58:52;;;;;;;4.00;0.30;;;;;;;7.51;59.49;97238.41;5006804;28;21057;-69
2023/11/05 08:01:18;;;;;;;0.77;0.20;;;;;;;7.74;58.96;97244.25;4997525;28;20046;-69
2023/11/05 08:03:44;;;;;;;5.70;0.20;;;;;;;7.88;58.69;97243.06;4995256;28;20043;-71
2023/11/05 08:06:12;;;;;;;3.17;0.60;;;;;;;8.05;57.39;97244.22;4997435;28;20026;-70
2023/11/05 08:08:41;;;;;;;6.45;1.15;;;;;;;8.08;57.96;97243.94;4990560;28;20045;-70
2023/11/05 08:11:07;;;;;;;3.92;0.40;;;;;;;7.92;57.46;97246.22;4998215;28;20045;-67
2023/11/05 08:13:33;;;;;;;3.83;1.02;;;;;;;7.90;57.78;97238.56;4994918;28;20075;-69
2023/11/05 08:15:59;;;;;;;6.35;0.40;;;;;;;7.92;58.38;97243.63;4985910;28;20025;-72
2023/11/05 08:18:24;;;;;;;3.88;0.25;;;;;;;7.92;57.92;97243.63;4994852;28;20040;-70
2023/11/05 08:20:50;;;;;;;5.65;0.40;;;;;;;7.96;58.30;97247.63;5001827;28;20029;-72
2023/11/05 08:23:17;;;;;;;3.85;0.30;;;;;;;8.81;57.02;97246.19;5006006;28;20246;-71
2023/11/05 08:25:43;;;;;;;9.82;0.47;;;;;;;9.33;55.89;97251.03;4996309;28;20095;-72
2023/11/05 08:28:09;;;;;;;2.47;0.20;;;;;;;9.16;55.99;97252.56;5001704;28;20047;-71
2023/11/05 08:30:35;;;;;;;4.70;0.40;;;;;;;9.51;54.52;97253.69;5007177;28;20033;-69
2023/11/05 08:33:01;;;;;;;4.75;0.30;;;;;;;10.13;53.62;97260.00;4997865;28;20056;-71
2023/11/05 08:35:26;;;;;;;2.38;0.20;;;;;;;10.97;52.58;97258.00;5001569;28;20084;-72
2023/11/05 08:37:53;;;;;;;3.55;0.20;;;;;;;11.90;50.86;97254.81;4997829;28;20041;-71
2023/11/05 08:40:25;;;;;;;2.42;0.20;;;;;;;12.14;49.67;97257.50;5004337;28;20044;-72
2023/11/05 08:42:51;;;;;;;2.78;0.40;;;;;;;12.05;48.24;97261.09;4998573;28;20063;-70
2023/11/05 08:45:16;;;;;;;1.95;0.20;;;;;;;11.45;48.59;97265.34;5002581;28;20029;-72
2023/11/05 08:47:42;;;;;;;1.23;0.30;;;;;;;10.15;50.46;97273.75;4995677;28;20041;-70
2023/11/05 08:50:08;;;;;;;4.55;0.20;;;;;;;9.66;52.08;97273.13;5000049;28;20034;-69
2023/11/05 08:52:33;;;;;;;1.65;0.40;;;;;;;9.40;52.61;97285.97;5001089;28;20045;-71
2023/11/05 08:55:01;;;;;;;2.60;0.20;;;;;;;9.45;52.92;97285.53;5010418;28;20305;-68
2023/11/05 08:57:28;;;;;;;4.35;0.52;;;;;;;9.19;53.16;97291.38;5000934;28;20049;-71
2023/11/05 08:59:53;;;;;;;2.63;0.65;;;;;;;9.15;54.17;97290.00;4997573;28;20022;-70
2023/11/05 09:02:19;;;;;;;3.35;0.20;;;;;;;9.16;54.73;97292.47;5003507;28;20025;-69
2023/11/05 09:04:44;;;;;;;3.38;0.20;;;;;;;8.95;54.57;97299.63;4996086;28;20460;-68
2023/11/05 09:07:10;;;;;;;3.45;0.30;;;;;;;8.90;54.42;97300.03;5001164;28;20694;-71
2023/11/05 09:09:37;;;;;;;1.63;0.55;;;;;;;8.87;55.53;97302.91;5004314;28;20037;-71
2023/11/05 09:12:07;;;;;;;1.90;0.20;;;;;;;8.77;55.49;97302.91;5000102;28;20037;-71
2023/11/05 09:14:34;;;;;;;2.10;0.30;;;;;;;8.72;55.99;97310.31;5002748;28;20033;-69
2023/11/05 09:16:59;;;;;;;4.93;1.73;;;;;;;8.59;55.82;97314.13;4995687;28;20034;-71
2023/11/05 09:19:25;;;;;;;2.53;0.95;;;;;;;8.79;55.84;97310.59;5010146;28;20098;-68
2023/11/05 09:21:50;;;;;;;2.85;0.50;;;;;;;8.72;55.77;97315.53;4995818;28;20596;-69
2023/11/05 09:24:16;;;;;;;3.25;0.32;;;;;;;8.70;56.12;97321.81;5003352;28;20037;-72
2023/11/05 09:26:41;;;;;;;6.30;0.38;;;;;;;8.78;55.99;97319.34;4996423;28;20061;-71
2023/11/05 09:29:07;;;;;;;2.83;0.47;;;;;;;8.89;56.09;97316.63;5004266;28;20072;-70
2023/11/05 09:31:32;;;;;;;4.10;0.50;;;;;;;8.84;56.38;97324.03;4996038;28;20112;-68
2023/11/05 09:33:59;;;;;;;2.60;0.75;;;;;;;8.68;56.76;97321.94;4997026;28;20102;-70
2023/11/05 09:36:24;;;;;;;3.58;0.50;;;;;;;8.75;56.98;97323.06;4996654;28;20076;-69
2023/11/05 09:38:49;;;;;;;3.13;0.77;;;;;;;8.95;56.86;97323.06;4995152;28;20041;-70
2023/11/05 09:41:18;;;;;;;5.72;0.88;;;;;;;9.03;56.54;97327.56;5001013;28;20099;-69
2023/11/05 09:43:48;;;;;;;4.35;1.13;;;;;;;9.26;56.81;97320.31;4989013;28;20046;-71
2023/11/05 09:46:14;;;;;;;5.88;1.17;;;;;;;9.60;56.54;97320.63;4999815;28;20095;-70
2023/11/05 09:48:41;;;;;;;2.92;1.35;;;;;;;9.45;55.58;97319.44;4997728;28;20394;-71
2023/11/05 09:51:11;;;;;;;6.75;5.22;;;;;;;9.29;55.40;97328.66;5000439;28;20029;-70
2023/11/05 09:53:37;;;;;;;8.55;5.82;;;;;;;9.69;55.71;97324.97;5011205;28;20068;-71
2023/11/05 09:56:04;;;;;;;8.68;6.70;;;;;;;9.70;55.24;97331.00;4998161;28;20227;-70
2023/11/05 09:58:32;;;;;;;4.43;2.70;;;;;;;9.68;54.83;97332.94;4997246;28;20091;-70
2023/11/05 10:00:58;;;;;;;5.20;2.53;;;;;;;9.54;54.80;97335.06;4996022;28;20443;-69
2023/11/05 10:03:26;;;;;;;3.03;0.60;;;;;;;9.40;55.32;97336.31;4998246;28;20068;-70
2023/11/05 10:05:53;;;;;;;2.88;0.47;;;;;;;9.24;55.01;97346.50;4996231;28;20140;-69
2023/11/05 10:08:22;;;;;;;2.95;1.50;;;;;;;9.06;55.92;97342.94;4998211;28;20531;-70
2023/11/05 10:10:47;;;;;;;7.63;1.70;;;;;;;8.88;56.35;97348.03;4996687;28;20036;-70
2023/11/05 10:13:15;;;;;;;2.15;0.93;;;;;;;8.94;56.87;97360.47;4995826;28;20543;-69
2023/11/05 10:15:42;;;;;;;3.35;1.15;;;;;;;8.54;57.73;97362.19;4995775;28;20092;-69
2023/11/05 10:18:17;;;;;;;1.33;0.85;;;;;;;8.93;57.46;97357.06;4999943;28;20040;-70
2023/11/05 10:20:55;;;;;;;4.68;1.23;;;;;;;9.10;57.18;97362.56;4997033;28;20060;-69
2023/11/05 10:23:22;;;;;;;2.63;1.50;;;;;;;9.08;57.08;97367.09;4999303;28;20404;-70
2023/11/05 10:25:50;;;;;;;3.50;0.95;;;;;;;9.15;57.60;97365.56;4993430;28;20556;-69
2023/11/05 10:28:16;;;;;;;3.17;0.43;;;;;;;8.85;57.99;97367.34;4997343;28;20156;-69
2023/11/05 10:30:45;;;;;;;2.90;0.82;;;;;;;9.14;57.65;97371.72;4996640;28;20393;-69
2023/11/05 10:33:14;;;;;;;4.38;0.63;;;;;;;9.12;57.25;97376.25;4998824;28;20069;-70
2023/11/05 10:35:40;;;;;;;2.90;0.70;;;;;;;9.31;56.80;97378.03;4994612;28;21001;-70
2023/11/05 10:38:08;;;;;;;2.38;0.70;;;;;;;9.45;56.77;97384.59;4995645;28;20064;-70
2023/11/05 10:40:34;;;;;;;1.95;0.60;;;;;;;8.62;57.69;97389.34;4998325;28;20045;-70
2023/11/05 10:43:00;;;;;;;1.13;0.80;;;;;;;9.07;57.43;97394.06;5008075;28;20046;-69
2023/11/05 10:45:26;;;;;;;1.98;0.73;;;;;;;8.76;58.00;97395.03;4998894;28;20034;-71
2023/11/05 10:47:51;;;;;;;4.47;1.02;;;;;;;8.96;57.82;97401.09;4993672;28;20071;-70
2023/11/05 10:50:24;;;;;;;1.88;0.82;;;;;;;8.46;58.43;97402.88;4984090;28;20136;-70
2023/11/05 10:53:00;;;;;;;1.77;0.93;;;;;;;8.25;59.19;97403.75;4992657;28;20084;-70
2023/11/05 10:55:34;;;;;;;2.13;1.17;;;;;;;8.77;58.06;97401.88;4999502;28;20038;-69
2023/11/05 10:58:02;;;;;;;3.88;2.03;;;;;;;9.05;57.96;97409.00;4989400;28;20525;-70
2023/11/05 11:00:28;;;;;;;2.70;1.05;;;;;;;8.97;57.78;97412.31;4998889;28;20052;-70
2023/11/05 11:02:54;;;;;;;1.73;1.35;;;;;;;8.91;57.32;97413.66;4994759;28;20049;-70
2023/11/05 11:05:40;;;;;;;2.95;1.13;;;;;;;8.81;57.96;97409.41;4996496;28;20036;-71
2023/11/05 11:08:08;;;;;;;2.25;0.73;;;;;;;9.05;57.83;97411.63;4983583;28;20339;-71
2023/11/05 11:10:38;;;;;;;3.78;1.17;;;;;;;9.24;57.23;97422.06;4996158;28;20029;-70
2023/11/05 11:13:10;;;;;;;3.45;1.55;;;;;;;9.72;56.25;97421.22;4998431;28;20068;-69
2023/11/05 11:15:37;;;;;;;7.28;1.17;;;;;;;9.91;55.99;97433.41;4997611;28;20029;-69
2023/11/05 11:18:14;;;;;;;3.67;1.20;;;;;;;10.20;55.07;97430.69;4991899;28;24074;-70
2023/11/05 11:20:42;;;;;;;1.88;0.90;;;;;;;10.13;55.23;97437.47;4985919;28;20021;-69
2023/11/05 11:23:16;;;;;;;3.15;1.20;;;;;;;10.26;55.42;97442.38;4991392;28;20060;-71
2023/11/05 11:26:04;;;;;;;3.40;1.48;;;;;;;10.71;54.11;97446.00;4996669;28;20025;-70
2023/11/05 11:28:31;;;;;;;5.32;1.70;;;;;;;10.41;52.89;97440.09;4991458;28;20354;-70
2023/11/05 11:30:58;;;;;;;2.85;0.60;;;;;;;9.95;53.64;97447.81;4989650;28;20091;-71
2023/11/05 11:33:29;;;;;;;2.28;1.42;;;;;;;9.30;55.32;97449.38;4993792;28;20037;-72
2023/11/05 11:35:56;;;;;;;4.10;1.33;;;;;;;9.39;55.43;97454.56;4989277;28;20036;-71
2023/11/05 11:38:21;;;;;;;5.75;1.38;;;;;;;9.80;54.72;97447.41;4983652;28;20123;-70